createdAt,value
2022-10-18T00:00:47.040Z,17.00
2022-10-18T00:03:14.102Z,20.50
2022-10-18T00:05:40.890Z,21.50
2022-10-18T00:08:07.849Z,18.25
2022-10-18T00:10:54.676Z,16.00
2022-10-18T00:13:22.470Z,17.00
2022-10-18T00:16:00.746Z,16.00
2022-10-18T00:18:28.587Z,15.00
2022-10-18T00:21:03.060Z,15.00
2022-10-18T00:23:32.098Z,16.75
2022-10-18T00:26:06.857Z,19.75
2022-10-18T00:28:35.310Z,17.00
2022-10-18T00:31:23.322Z,16.00
2022-10-18T00:33:53.393Z,18.50
2022-10-18T00:36:21.063Z,16.50
2022-10-18T00:38:49.448Z,15.00
2022-10-18T00:41:19.135Z,18.00
2022-10-18T00:44:06.365Z,17.25
2022-10-18T00:46:39.036Z,15.00
2022-10-18T00:49:17.304Z,19.00
2022-10-18T00:51:49.800Z,19.00
2022-10-18T00:54:19.396Z,17.00
2022-10-18T00:56:46.565Z,17.25
2022-10-18T00:59:16.103Z,17.00
2022-10-18T01:01:43.796Z,16.00
2022-10-18T01:04:12.339Z,17.50
2022-10-18T01:06:50.944Z,16.00
2022-10-18T01:09:20.755Z,19.00
2022-10-18T01:12:15.413Z,20.75
2022-10-18T01:15:30.471Z,17.50
2022-10-18T01:18:00.624Z,15.00
2022-10-18T01:21:02.350Z,18.75
2022-10-18T01:23:47.982Z,19.00
2022-10-18T01:26:20.701Z,17.00
2022-10-18T01:28:50.639Z,15.50
2022-10-18T01:31:28.631Z,14.00
2022-10-18T01:34:08.306Z,17.00
2022-10-18T01:36:49.785Z,19.00
2022-10-18T01:39:23.672Z,18.75
2022-10-18T01:41:53.390Z,16.00
2022-10-18T01:44:25.623Z,19.00
2022-10-18T01:46:55.113Z,15.00
2022-10-18T01:49:21.951Z,18.00
2022-10-18T01:51:48.902Z,16.50
2022-10-18T01:54:22.018Z,18.75
2022-10-18T01:56:58.670Z,19.00
2022-10-18T01:59:54.773Z,19.00
2022-10-18T02:02:36.940Z,20.75
2022-10-18T02:05:31.794Z,19.00
2022-10-18T02:08:22.442Z,17.75
2022-10-18T02:10:59.227Z,15.00
2022-10-18T02:13:33.466Z,14.50
2022-10-18T02:16:10.240Z,15.00
2022-10-18T02:18:49.923Z,13.00
2022-10-18T02:21:22.609Z,19.00
2022-10-18T02:23:50.213Z,16.00
2022-10-18T02:26:17.301Z,15.00
2022-10-18T02:28:45.780Z,14.00
2022-10-18T02:31:44.229Z,16.00
2022-10-18T02:34:34.665Z,18.00
2022-10-18T02:37:02.312Z,16.50
2022-10-18T02:39:42.604Z,19.00
2022-10-18T02:42:11.118Z,16.00
2022-10-18T02:44:38.810Z,15.00
2022-10-18T02:47:07.904Z,16.25
2022-10-18T02:49:34.799Z,18.00
2022-10-18T02:52:01.723Z,17.00
2022-10-18T02:54:28.582Z,16.50
2022-10-18T02:56:55.500Z,15.00
2022-10-18T02:59:22.400Z,14.00
2022-10-18T03:01:49.517Z,16.00
2022-10-18T03:04:16.446Z,17.00
2022-10-18T03:06:43.338Z,18.75
2022-10-18T03:09:10.380Z,18.00
2022-10-18T03:11:37.310Z,18.75
2022-10-18T03:14:04.225Z,18.50
2022-10-18T03:16:31.128Z,16.00
2022-10-18T03:18:57.943Z,15.25
2022-10-18T03:21:24.871Z,15.75
2022-10-18T03:23:51.800Z,18.50
2022-10-18T03:26:18.745Z,15.50
2022-10-18T03:28:45.654Z,18.00
2022-10-18T03:31:12.672Z,14.50
2022-10-18T03:33:39.623Z,13.75
2022-10-18T03:36:06.481Z,13.00
2022-10-18T03:38:33.280Z,17.50
2022-10-18T03:41:00.290Z,18.00
2022-10-18T03:43:27.056Z,18.00
2022-10-18T03:45:54.260Z,15.50
2022-10-18T03:48:21.149Z,13.00
2022-10-18T03:50:48.046Z,17.00
2022-10-18T03:53:14.885Z,18.00
2022-10-18T03:55:41.762Z,17.00
2022-10-18T03:58:09.250Z,16.00
2022-10-18T04:00:36.609Z,15.00
2022-10-18T04:03:03.914Z,15.00
2022-10-18T04:05:30.733Z,18.75
2022-10-18T04:07:57.972Z,19.00
2022-10-18T04:10:45.378Z,19.00
2022-10-18T04:13:12.349Z,19.00
2022-10-18T04:15:39.161Z,19.00
2022-10-18T04:18:06.315Z,18.75
2022-10-18T04:20:33.134Z,19.50
2022-10-18T04:22:59.958Z,17.00
2022-10-18T04:25:26.826Z,14.00
2022-10-18T04:27:53.653Z,18.25
2022-10-18T04:30:20.492Z,18.50
2022-10-18T04:32:47.459Z,18.00
2022-10-18T04:35:14.276Z,17.00
2022-10-18T04:38:04.186Z,16.00
2022-10-18T04:40:31.056Z,15.00
2022-10-18T04:42:57.898Z,18.50
2022-10-18T04:45:24.734Z,17.00
2022-10-18T04:47:51.547Z,15.00
2022-10-18T04:50:18.669Z,15.50
2022-10-18T04:52:45.550Z,15.00
2022-10-18T04:55:12.490Z,16.00
2022-10-18T04:57:39.682Z,17.00
2022-10-18T05:00:07.036Z,18.00
2022-10-18T05:02:34.224Z,19.00
2022-10-18T05:05:01.281Z,17.00
2022-10-18T05:07:28.153Z,17.00
2022-10-18T05:09:55.013Z,19.00
2022-10-18T05:12:21.804Z,19.00
2022-10-18T05:14:48.932Z,19.00
2022-10-18T05:17:15.726Z,19.00
2022-10-18T05:19:42.635Z,19.75
2022-10-18T05:22:09.539Z,17.75
2022-10-18T05:24:36.357Z,16.50
2022-10-18T05:27:03.239Z,16.75
2022-10-18T05:29:30.215Z,18.75
2022-10-18T05:31:57.016Z,18.25
2022-10-18T05:34:23.972Z,16.00
2022-10-18T05:36:50.813Z,15.00
2022-10-18T05:39:40.882Z,18.50
2022-10-18T05:42:07.942Z,17.50
2022-10-18T05:44:35.124Z,19.00
2022-10-18T05:47:02.047Z,18.00
2022-10-18T05:49:28.893Z,17.00
2022-10-18T05:51:55.750Z,19.50
2022-10-18T05:54:25.344Z,19.00
2022-10-18T05:56:56.838Z,16.50
2022-10-18T05:59:24.273Z,15.50
2022-10-18T06:01:51.022Z,17.00
2022-10-18T06:04:37.936Z,16.00
2022-10-18T06:07:23.944Z,17.25
2022-10-18T06:09:51.824Z,18.00
2022-10-18T06:12:28.438Z,17.50
2022-10-18T06:15:16.370Z,21.50
2022-10-18T06:17:45.276Z,19.00
2022-10-18T06:20:16.582Z,22.00
2022-10-18T06:22:44.554Z,22.50
2022-10-18T06:25:14.575Z,21.00
2022-10-18T06:27:41.997Z,21.00
2022-10-18T06:30:12.343Z,21.00
2022-10-18T06:32:39.272Z,21.00
2022-10-18T06:35:06.632Z,21.00
2022-10-18T06:37:34.382Z,20.00
2022-10-18T06:40:27.431Z,19.00
2022-10-18T06:43:00.417Z,20.00
2022-10-18T06:45:27.617Z,21.00
2022-10-18T06:47:57.459Z,21.00
2022-10-18T06:50:24.448Z,21.00
2022-10-18T06:52:54.988Z,21.00
2022-10-18T06:55:31.432Z,21.00
2022-10-18T06:57:58.483Z,20.00
2022-10-18T07:00:32.790Z,22.00
2022-10-18T07:03:02.861Z,23.00
2022-10-18T07:08:03.804Z,20.50
2022-10-18T07:10:41.174Z,22.00
2022-10-18T07:13:30.979Z,21.00
2022-10-18T07:16:18.712Z,23.00
2022-10-18T07:18:49.484Z,22.50
2022-10-18T07:21:21.558Z,22.00
2022-10-18T07:23:49.500Z,21.50
2022-10-18T07:26:52.257Z,23.50
2022-10-18T07:29:19.416Z,23.00
2022-10-18T07:31:46.444Z,23.00
2022-10-18T07:34:45.445Z,23.50
2022-10-18T07:37:18.411Z,23.00
2022-10-18T07:39:45.784Z,22.75
2022-10-18T07:42:13.020Z,23.00
2022-10-18T07:44:42.647Z,24.00
2022-10-18T07:47:18.283Z,24.00
2022-10-18T07:49:45.192Z,25.00
2022-10-18T07:52:12.453Z,24.00
2022-10-18T07:54:39.864Z,24.50
2022-10-18T07:57:09.710Z,24.00
2022-10-18T07:59:36.621Z,24.00
2022-10-18T08:02:03.578Z,24.00
2022-10-18T08:04:31.526Z,24.00
2022-10-18T08:06:58.380Z,24.00
2022-10-18T08:09:25.429Z,24.00
2022-10-18T08:11:52.343Z,23.00
2022-10-18T08:14:19.228Z,23.00
2022-10-18T08:16:46.108Z,24.00
2022-10-18T08:19:13.013Z,24.00
2022-10-18T08:21:39.886Z,23.00
2022-10-18T08:24:06.830Z,23.00
2022-10-18T08:26:36.060Z,24.00
2022-10-18T08:29:22.557Z,24.00
2022-10-18T08:31:51.115Z,24.00
2022-10-18T08:34:24.442Z,24.50
2022-10-18T08:36:58.805Z,25.25
2022-10-18T08:39:25.763Z,25.00
2022-10-18T08:42:18.760Z,24.00
2022-10-18T08:44:48.828Z,24.00
2022-10-18T08:47:40.260Z,24.50
2022-10-18T08:50:17.539Z,24.00
2022-10-18T08:53:03.559Z,24.00
2022-10-18T08:55:42.204Z,24.00
2022-10-18T08:58:25.178Z,24.00
2022-10-18T09:01:21.501Z,24.00
2022-10-18T09:03:54.595Z,25.00
2022-10-18T09:06:44.875Z,24.00
2022-10-18T09:09:35.583Z,24.00
2022-10-18T09:12:28.463Z,24.00
2022-10-18T09:15:12.932Z,24.00
2022-10-18T09:18:00.125Z,25.00
2022-10-18T09:20:33.077Z,24.00
2022-10-18T09:23:34.956Z,24.00
2022-10-18T09:26:14.582Z,23.00
2022-10-18T09:28:54.256Z,23.00
2022-10-18T09:31:33.644Z,24.00
2022-10-18T09:34:06.634Z,24.00
2022-10-18T09:36:38.591Z,25.00
2022-10-18T09:39:17.851Z,25.00
2022-10-18T09:41:51.345Z,24.00
2022-10-18T09:44:31.778Z,24.50
2022-10-18T09:47:17.058Z,24.00
2022-10-18T09:50:13.216Z,23.25
2022-10-18T09:52:47.681Z,23.75
2022-10-18T09:55:31.014Z,24.00
2022-10-18T09:58:01.980Z,24.50
2022-10-18T10:00:33.647Z,25.00
2022-10-18T10:03:01.960Z,24.00
2022-10-18T10:05:28.819Z,24.25
2022-10-18T10:08:12.906Z,24.00
2022-10-18T10:10:45.625Z,24.00
2022-10-18T10:13:24.824Z,25.50
2022-10-18T10:16:02.867Z,25.00
2022-10-18T10:18:33.401Z,24.00
2022-10-18T10:21:05.861Z,24.25
2022-10-18T10:23:32.685Z,24.00
2022-10-18T10:26:02.335Z,25.00
2022-10-18T10:28:36.651Z,25.00
2022-10-18T10:31:24.885Z,25.50
2022-10-18T10:33:59.843Z,25.00
2022-10-18T10:36:26.995Z,25.00
2022-10-18T10:39:15.505Z,24.00
2022-10-18T10:42:04.214Z,24.00
2022-10-18T10:44:36.883Z,24.00
2022-10-18T10:47:04.716Z,24.00
2022-10-18T10:49:43.831Z,23.00
2022-10-18T10:52:28.065Z,24.00
2022-10-18T10:55:11.354Z,24.00
2022-10-18T10:57:49.931Z,24.00
2022-10-18T11:00:43.534Z,24.00
2022-10-18T11:03:28.575Z,24.00
2022-10-18T11:05:56.912Z,24.00
2022-10-18T11:08:38.934Z,23.00
2022-10-18T11:11:30.975Z,24.00
2022-10-18T11:14:26.615Z,24.00
2022-10-18T11:17:18.370Z,23.00
2022-10-18T11:20:27.059Z,24.25
2022-10-18T11:22:56.702Z,23.00
2022-10-18T11:25:29.069Z,24.00
2022-10-18T11:28:07.154Z,25.00
2022-10-18T11:30:48.350Z,24.00
2022-10-18T11:33:56.166Z,24.00
2022-10-18T11:36:54.692Z,24.00
2022-10-18T11:39:51.073Z,24.00
2022-10-18T11:42:29.183Z,24.00
2022-10-18T11:45:15.664Z,24.00
2022-10-18T11:47:52.132Z,23.50
2022-10-18T11:50:35.079Z,23.50
2022-10-18T11:53:25.273Z,23.00
2022-10-18T11:56:29.713Z,24.00
2022-10-18T11:59:36.501Z,23.00
2022-10-18T12:02:27.827Z,23.75
2022-10-18T12:08:13.153Z,24.00
2022-10-18T12:10:59.897Z,24.00
2022-10-18T12:13:34.439Z,23.00
2022-10-18T12:16:05.444Z,23.00
2022-10-18T12:18:35.379Z,23.50
2022-10-18T12:21:37.803Z,23.00
2022-10-18T12:24:14.849Z,23.50
2022-10-18T12:26:42.221Z,23.00
2022-10-18T12:29:20.057Z,23.00
2022-10-18T12:31:51.832Z,23.00
2022-10-18T12:37:25.473Z,24.00
2022-10-18T12:40:09.895Z,23.50
2022-10-18T12:42:46.313Z,23.00
2022-10-18T12:45:20.052Z,23.50
2022-10-18T12:47:47.594Z,23.00
2022-10-18T12:50:32.952Z,24.00
2022-10-18T12:53:18.562Z,23.00
2022-10-18T12:55:48.977Z,23.25
2022-10-18T12:58:25.026Z,24.00
2022-10-18T13:00:58.468Z,24.00
2022-10-18T13:03:25.336Z,24.00
2022-10-18T13:05:53.918Z,24.00
2022-10-18T13:08:28.003Z,24.00
2022-10-18T13:11:10.087Z,23.00
2022-10-18T13:14:01.942Z,24.50
2022-10-18T13:16:56.780Z,24.00
2022-10-18T13:20:25.146Z,24.00
2022-10-18T13:23:10.277Z,24.00
2022-10-18T13:25:54.355Z,23.00
2022-10-18T13:28:21.251Z,24.00
2022-10-18T13:31:03.196Z,23.00
2022-10-18T13:33:40.757Z,24.00
2022-10-18T13:36:21.788Z,23.00
2022-10-18T13:38:50.292Z,24.00
2022-10-18T13:41:19.267Z,24.00
2022-10-18T13:44:04.880Z,23.00
2022-10-18T13:46:38.025Z,23.00
2022-10-18T13:49:13.924Z,24.00
2022-10-18T13:51:43.645Z,24.00
2022-10-18T13:54:19.889Z,23.00
2022-10-18T13:57:11.202Z,23.00
2022-10-18T13:59:46.323Z,24.00
2022-10-18T14:02:57.706Z,23.50
2022-10-18T14:05:45.578Z,24.00
2022-10-18T14:08:35.680Z,25.00
2022-10-18T14:11:24.327Z,25.00
2022-10-18T14:14:19.235Z,24.00
2022-10-18T14:16:58.815Z,24.75
2022-10-18T14:19:25.708Z,24.00
2022-10-18T14:21:59.560Z,24.00
2022-10-18T14:24:29.399Z,24.00
2022-10-18T14:27:27.373Z,24.00
2022-10-18T14:30:16.503Z,23.50
2022-10-18T14:32:48.775Z,24.00
2022-10-18T14:35:32.410Z,24.00
2022-10-18T14:38:19.047Z,24.00
2022-10-18T14:40:46.210Z,24.00
2022-10-18T14:43:18.798Z,24.00
2022-10-18T14:45:45.998Z,24.00
2022-10-18T14:48:20.799Z,24.00
2022-10-18T14:50:55.736Z,24.00
2022-10-18T14:53:22.949Z,24.00
2022-10-18T14:55:56.327Z,24.00
2022-10-18T14:58:23.717Z,24.50
2022-10-18T15:00:50.779Z,24.00
2022-10-18T15:03:18.738Z,24.00
2022-10-18T15:06:01.085Z,24.00
2022-10-18T15:08:38.776Z,24.00
2022-10-18T15:11:10.619Z,24.00
2022-10-18T15:13:56.735Z,24.00
2022-10-18T15:16:28.367Z,23.75
2022-10-18T15:19:14.011Z,24.00
2022-10-18T15:25:30.862Z,24.50
2022-10-18T15:28:00.692Z,24.00
2022-10-18T15:30:42.360Z,25.00
2022-10-18T15:33:26.278Z,25.50
2022-10-18T15:36:22.636Z,24.00
2022-10-18T15:38:51.827Z,24.50
2022-10-18T15:41:54.083Z,25.00
2022-10-18T15:44:24.861Z,24.00
2022-10-18T15:46:55.635Z,24.00
2022-10-18T15:49:41.079Z,24.00
2022-10-18T15:52:37.874Z,24.00
2022-10-18T15:55:30.109Z,24.50
2022-10-18T15:58:25.751Z,25.00
2022-10-18T16:01:01.097Z,24.00
2022-10-18T16:03:34.039Z,24.00
2022-10-18T16:06:18.051Z,23.00
2022-10-18T16:08:48.686Z,23.25
2022-10-18T16:11:22.053Z,23.00
2022-10-18T16:13:50.394Z,25.00
2022-10-18T16:16:20.766Z,24.00
2022-10-18T16:18:48.442Z,24.00
2022-10-18T16:21:40.976Z,25.00
2022-10-18T16:24:08.454Z,25.00
2022-10-18T16:26:35.766Z,24.00
2022-10-18T16:29:04.393Z,25.00
2022-10-18T16:31:33.598Z,25.00
2022-10-18T16:34:01.151Z,24.00
2022-10-18T16:36:32.581Z,24.00
2022-10-18T16:39:14.186Z,24.00
2022-10-18T16:41:41.111Z,24.00
2022-10-18T16:44:22.908Z,24.00
2022-10-18T16:46:52.584Z,24.00
2022-10-18T16:49:27.835Z,24.00
2022-10-18T16:51:55.166Z,23.00
2022-10-18T16:54:22.797Z,23.00
2022-10-18T16:56:49.760Z,23.00
2022-10-18T16:59:31.453Z,24.00
2022-10-18T17:02:09.994Z,24.00
2022-10-18T17:04:36.921Z,23.00
2022-10-18T17:07:04.181Z,24.00
2022-10-18T17:09:31.213Z,24.00
2022-10-18T17:12:36.220Z,24.00
2022-10-18T17:15:03.543Z,24.00
2022-10-18T17:17:30.873Z,24.00
2022-10-18T17:20:19.411Z,24.00
2022-10-18T17:22:46.698Z,24.00
2022-10-18T17:25:13.496Z,24.00
2022-10-18T17:27:40.523Z,26.00
2022-10-18T17:30:08.123Z,24.00
2022-10-18T17:32:35.018Z,23.00
2022-10-18T17:35:25.282Z,27.00
2022-10-18T17:37:52.828Z,27.00
2022-10-18T17:40:20.157Z,25.00
2022-10-18T17:42:47.408Z,25.00
2022-10-18T17:45:14.366Z,24.00
2022-10-18T17:47:41.612Z,24.00
2022-10-18T17:50:08.977Z,24.00
2022-10-18T17:55:19.178Z,24.00
2022-10-18T17:57:46.077Z,24.00
2022-10-18T18:00:13.576Z,23.00
2022-10-18T18:02:42.357Z,25.00
2022-10-18T18:05:10.515Z,24.00
2022-10-18T18:07:37.490Z,24.00
2022-10-18T18:10:05.084Z,24.00
2022-10-18T18:12:32.890Z,24.00
2022-10-18T18:15:00.253Z,23.00
2022-10-18T18:17:34.114Z,24.00
2022-10-18T18:20:01.895Z,23.25
2022-10-18T18:22:29.139Z,23.00
2022-10-18T18:24:56.248Z,25.00
2022-10-18T18:27:23.491Z,24.00
2022-10-18T18:29:50.483Z,23.00
2022-10-18T18:32:17.281Z,24.00
2022-10-18T18:34:44.123Z,23.00
2022-10-18T18:37:10.974Z,24.00
2022-10-18T18:39:38.358Z,24.00
2022-10-18T18:42:06.109Z,25.00
2022-10-18T18:44:33.634Z,24.00
2022-10-18T18:47:01.759Z,25.00
2022-10-18T18:49:28.869Z,24.00
2022-10-18T18:51:55.719Z,24.00
2022-10-18T18:54:23.068Z,24.00
2022-10-18T18:56:50.024Z,24.00
2022-10-18T18:59:17.127Z,24.50
2022-10-18T19:01:46.539Z,25.00
2022-10-18T19:04:13.421Z,24.00
2022-10-18T19:06:46.627Z,24.00
2022-10-18T19:09:16.475Z,24.00
2022-10-18T19:11:43.265Z,23.00
2022-10-18T19:14:10.134Z,24.00
2022-10-18T19:16:48.003Z,23.00
2022-10-18T19:19:19.973Z,22.00
2022-10-18T19:21:52.380Z,23.00
2022-10-18T19:24:21.671Z,24.00
2022-10-18T19:26:51.073Z,23.00
2022-10-18T19:29:23.068Z,23.00
2022-10-18T19:31:58.322Z,25.00
2022-10-18T19:34:48.402Z,25.00
2022-10-18T19:37:16.694Z,23.00
2022-10-18T19:39:43.929Z,24.00
2022-10-18T19:42:16.008Z,23.00
2022-10-18T19:44:45.553Z,24.00
2022-10-18T19:47:14.410Z,23.00
2022-10-18T19:49:41.418Z,23.00
2022-10-18T19:52:08.344Z,24.00
2022-10-18T19:54:35.327Z,23.00
2022-10-18T19:57:02.385Z,23.00
2022-10-18T19:59:29.406Z,23.00
2022-10-18T20:01:56.394Z,24.00
2022-10-18T20:04:23.264Z,24.00
2022-10-18T20:06:50.054Z,24.00
2022-10-18T20:09:19.737Z,24.00
2022-10-18T20:11:48.119Z,23.00
2022-10-18T20:14:15.159Z,22.00
2022-10-18T20:16:41.983Z,24.25
2022-10-18T20:19:10.855Z,22.00
2022-10-18T20:21:37.724Z,23.00
2022-10-18T20:24:05.828Z,23.00
2022-10-18T20:26:45.781Z,23.00
2022-10-18T20:29:12.808Z,24.00
2022-10-18T20:31:39.797Z,23.00
2022-10-18T20:34:08.886Z,24.00
2022-10-18T20:36:35.765Z,23.00
2022-10-18T20:39:03.671Z,24.00
2022-10-18T20:41:35.199Z,24.00
2022-10-18T20:44:07.991Z,25.00
2022-10-18T20:46:37.103Z,24.00
2022-10-18T20:49:05.488Z,24.00
2022-10-18T20:51:33.065Z,23.00
2022-10-18T20:56:32.763Z,23.00
2022-10-18T20:59:07.832Z,25.00
2022-10-18T21:01:36.105Z,24.00
2022-10-18T21:04:10.937Z,24.00
2022-10-18T21:06:40.650Z,24.00
2022-10-18T21:09:11.960Z,23.25
2022-10-18T21:11:42.665Z,23.00
2022-10-18T21:14:18.402Z,23.00
2022-10-18T21:16:46.326Z,23.00
2022-10-18T21:19:20.318Z,23.00
2022-10-18T21:21:50.578Z,23.00
2022-10-18T21:24:18.776Z,23.00
2022-10-18T21:26:45.892Z,23.00
2022-10-18T21:29:13.126Z,23.00
2022-10-18T21:32:03.102Z,22.00
2022-10-18T21:34:30.025Z,23.00
2022-10-18T21:36:56.796Z,23.00
2022-10-18T21:41:51.511Z,22.00
2022-10-18T21:44:18.583Z,23.00
2022-10-18T21:46:45.747Z,23.00
2022-10-18T21:49:14.119Z,22.00
2022-10-18T21:51:41.044Z,23.00
2022-10-18T21:54:12.899Z,23.00
2022-10-18T21:56:40.005Z,23.00
2022-10-18T21:59:07.163Z,23.00
2022-10-18T22:01:36.877Z,22.00
2022-10-18T22:04:16.344Z,22.50
2022-10-18T22:06:43.314Z,23.25
2022-10-18T22:09:10.497Z,23.00
2022-10-18T22:11:44.382Z,23.00
2022-10-18T22:14:11.589Z,23.00
2022-10-18T22:16:38.460Z,24.00
2022-10-18T22:19:07.131Z,23.00
2022-10-18T22:21:35.015Z,23.00
2022-10-18T22:24:06.537Z,23.00
2022-10-18T22:26:38.470Z,23.00
2022-10-18T22:29:14.662Z,23.00
2022-10-18T22:31:47.037Z,24.00
2022-10-18T22:34:20.189Z,25.00
2022-10-18T22:36:49.723Z,23.00
2022-10-18T22:39:17.332Z,24.00
2022-10-18T22:41:44.446Z,23.75
2022-10-18T22:44:13.123Z,23.00
2022-10-18T22:46:40.989Z,22.50
2022-10-18T22:49:08.551Z,24.50
2022-10-18T22:54:07.865Z,23.00
2022-10-18T22:56:35.008Z,23.00
2022-10-18T22:59:02.893Z,24.00
2022-10-18T23:01:29.718Z,23.00
2022-10-18T23:03:58.769Z,23.00
2022-10-18T23:06:33.933Z,22.50
2022-10-18T23:09:04.008Z,23.00
2022-10-18T23:11:31.584Z,23.00
2022-10-18T23:13:58.402Z,23.00
2022-10-18T23:16:25.276Z,23.00
2022-10-18T23:18:54.407Z,22.50
2022-10-18T23:21:22.682Z,22.00
2022-10-18T23:23:50.147Z,22.00
2022-10-18T23:26:19.585Z,22.50
2022-10-18T23:28:47.935Z,23.00
2022-10-18T23:31:16.084Z,24.00
2022-10-18T23:33:42.897Z,25.00
2022-10-18T23:36:10.020Z,23.00
2022-10-18T23:38:39.237Z,23.00
2022-10-18T23:41:08.166Z,23.00
2022-10-18T23:43:35.215Z,24.00
2022-10-18T23:46:02.718Z,23.00
2022-10-18T23:48:29.789Z,22.50
2022-10-18T23:50:57.367Z,23.00
2022-10-18T23:53:24.487Z,23.50
2022-10-18T23:55:59.781Z,24.00
2022-10-18T23:58:28.077Z,24.00
